Jason Belcher — WDC2455 — position and weather

sailwx.info

Track history (hours):
 
Tides and Currents Weather Stations Pressure Air Temp Water Temp Dewpoint Dewpoint Depression Visibility Wind Speed Wind Dir Waves Ship Positions

Jason Belcher

Owner: Florida Marine, LLC, Mandeville, LA. More information available from US FCC via Universal Licensing System and Coast Guard Vessel Documentation Center.

Last reported at 2017-Aug-21 11:33 UTC. Time now 2017-Sep-21 12:21 UTC.
Position N 31°42' W 091°24'.
Warning: this ship's position is 31 days out of date.

Length 38 m; draft 3 m.

Type: Towing. MMSI: 366993430.

Date/timePositionNaut miles runAvg speedWind from/ knotsBaromVisibWave heightAir tempDewpointWater temp
2017-Aug-21 11:33N 31°42' W 091°24'1 7.7
2017-Aug-21 11:25N 31°43' W 091°23'8 8.0
2017-Aug-21 10:26N 31°51' W 091°21'4 7.7
2017-Aug-21 09:58N 31°51' W 091°16'7 7.4
2017-Aug-21 08:59N 31°57' W 091°11'3 7.1
2017-Aug-21 08:30N 31°59' W 091°08'4 7.3
2017-Aug-21 08:00N 32°01' W 091°04'4 6.8
2017-Aug-21 07:23N 32°05' W 091°05'3 6.9
2017-Aug-21 07:00N 32°08' W 091°06'2 3.9
2017-Aug-21 06:30N 32°08' W 091°04'2 3.3
2017-Aug-21 06:00N 32°07' W 091°02'3 5.7
2017-Aug-21 05:30N 32°09' W 091°00'3 6.5
2017-Aug-21 05:01N 32°12' W 090°59'4 7.9
2017-Aug-21 04:31N 32°16' W 090°58'4 8.1
2017-Aug-21 04:01N 32°19' W 090°54'3 5.7
2017-Aug-21 03:31N 32°21' W 090°57'3 6.5
2017-Aug-21 03:01N 32°22' W 091°00'3 6.8
2017-Aug-21 02:31N 32°26' W 091°01'4 8.0
2017-Aug-21 02:01N 32°27' W 091°05'5 7.2
2017-Aug-21 01:20N 32°32' W 091°06'3 7.8
2017-Aug-21 01:01N 32°34' W 091°07'4 7.7
2017-Aug-21 00:30N 32°38' W 091°09'  
Track history (hours):
 
Tides and Currents Weather Stations Pressure Air Temp Water Temp Dewpoint Dewpoint Depression Visibility Wind Speed Wind Dir Waves Ship Positions

Jason Belcher

Owner: Florida Marine, LLC, Mandeville, LA. More information available from US FCC via Universal Licensing System and Coast Guard Vessel Documentation Center.

Last reported at 2017-Aug-21 11:33 UTC. Time now 2017-Sep-21 12:21 UTC.
Position N 31°42' W 091°24'.
Warning: this ship's position is 31 days out of date.

Length 38 m; draft 3 m.

Type: Towing. MMSI: 366993430.

Date/timePositionNaut miles runAvg speedWind from/ knotsBaromVisibWave heightAir tempDewpointWater temp
2017-Aug-21 11:33N 31°42' W 091°24'1 7.7
2017-Aug-21 11:25N 31°43' W 091°23'8 8.0
2017-Aug-21 10:26N 31°51' W 091°21'4 7.7
2017-Aug-21 09:58N 31°51' W 091°16'7 7.4
2017-Aug-21 08:59N 31°57' W 091°11'3 7.1
2017-Aug-21 08:30N 31°59' W 091°08'4 7.3
2017-Aug-21 08:00N 32°01' W 091°04'4 6.8
2017-Aug-21 07:23N 32°05' W 091°05'3 6.9
2017-Aug-21 07:00N 32°08' W 091°06'2 3.9
2017-Aug-21 06:30N 32°08' W 091°04'2 3.3
2017-Aug-21 06:00N 32°07' W 091°02'3 5.7
2017-Aug-21 05:30N 32°09' W 091°00'3 6.5
2017-Aug-21 05:01N 32°12' W 090°59'4 7.9
2017-Aug-21 04:31N 32°16' W 090°58'4 8.1
2017-Aug-21 04:01N 32°19' W 090°54'3 5.7
2017-Aug-21 03:31N 32°21' W 090°57'3 6.5
2017-Aug-21 03:01N 32°22' W 091°00'3 6.8
2017-Aug-21 02:31N 32°26' W 091°01'4 8.0
2017-Aug-21 02:01N 32°27' W 091°05'5 7.2
2017-Aug-21 01:20N 32°32' W 091°06'3 7.8
2017-Aug-21 01:01N 32°34' W 091°07'4 7.7
2017-Aug-21 00:30N 32°38' W 091°09'  

Dump ship's entire track history